Time;durP1;ratioP1;P1;durP2;ratioP2;P2;SDS_P1;SDS_P2;PMS_P1;PMS_P2;Temp;Humidity;BMP_temperature;BMP_pressure;BME280_temperature;BME280_humidity;BME280_pressure;Samples;Min_cycle;Max_cycle;Signal;HPM_P1;HPM_P2
2024/04/18 00:02:17;;;;;;;;;;;;;;;12.30;100.00;97303.47;5563560;25;19935;-83
2024/04/18 00:04:42;;;;;;;;;;;;;;;11.98;100.00;97306.00;5531308;25;20351;-80
2024/04/18 00:07:07;;;;;;;;;;;;;;;11.65;100.00;97308.19;5507188;25;19927;-82
2024/04/18 00:09:33;;;;;;;;;;;;;;;11.62;100.00;97298.84;5524747;26;19928;-82
2024/04/18 00:11:58;;;;;;;;;;;;;;;11.60;100.00;97297.78;5530188;25;19931;-84
2024/04/18 00:14:23;;;;;;;;;;;;;;;11.49;100.00;97294.84;5530994;25;20373;-85
2024/04/18 00:16:48;;;;;;;;;;;;;;;11.24;100.00;97296.16;5530761;25;19939;-81
2024/04/18 00:19:17;;;;;;;;;;;;;;;11.17;100.00;97283.47;5531058;25;20366;-82
2024/04/18 00:21:42;;;;;;;;;;;;;;;11.05;100.00;97286.50;5564186;25;19927;-81
2024/04/18 00:24:08;;;;;;;;;;;;;;;11.13;100.00;97291.19;5507634;25;19931;-83
2024/04/18 00:26:33;;;;;;;;;;;;;;;11.21;100.00;97295.09;5529987;25;19927;-81
2024/04/18 00:28:59;;;;;;;;;;;;;;;11.18;100.00;97290.53;5531382;25;19926;-82
2024/04/18 00:31:24;;;;;;;;;;;;;;;11.14;100.00;97283.66;5530218;25;19927;-82
2024/04/18 00:33:49;;;;;;;;;;;;;;;11.15;100.00;97285.19;5530721;25;20358;-81
2024/04/18 00:36:14;;;;;;;;;;;;;;;11.12;100.00;97288.88;5506613;25;19994;-82
2024/04/18 00:38:40;;;;;;;;;;;;;;;11.17;100.00;97286.22;5530181;25;19994;-82
2024/04/18 00:41:06;;;;;;;;;;;;;;;11.19;100.00;97286.53;5506441;25;19934;-82
2024/04/18 00:43:32;;;;;;;;;;;;;;;11.25;98.83;97295.69;5530723;25;19926;-83
2024/04/18 00:45:57;;;;;;;;;;;;;;;11.32;99.91;97300.84;5530458;25;20283;-82
2024/04/18 00:48:25;;;;;;;;;;;;;;;11.49;100.00;97300.38;5564356;25;20254;-85
2024/04/18 00:50:50;;;;;;;;;;;;;;;11.46;99.71;97298.53;5530612;25;19927;-82
2024/04/18 00:53:16;;;;;;;;;;;;;;;11.38;98.88;97307.25;5530540;25;19999;-82
2024/04/18 00:55:42;;;;;;;;;;;;;;;11.32;100.00;97303.63;5530680;25;19953;-82
2024/04/18 00:58:10;;;;;;;;;;;;;;;11.28;100.00;97311.31;5530651;25;20311;-82
2024/04/18 01:00:36;;;;;;;;;;;;;;;11.25;100.00;97306.75;5530170;25;19934;-84
2024/04/18 01:03:02;;;;;;;;;;;;;;;11.24;100.00;97313.50;5531038;25;19927;-83
2024/04/18 01:05:27;;;;;;;;;;;;;;;11.24;100.00;97321.78;5521166;25;20350;-82
2024/04/18 01:07:52;;;;;;;;;;;;;;;11.20;100.00;97317.69;5515596;25;19955;-82
2024/04/18 01:10:17;;;;;;;;;;;;;;;11.05;100.00;97312.13;5563143;25;19927;-82
2024/04/18 01:12:43;;;;;;;;;;;;;;;10.92;100.00;97320.66;5530787;25;19934;-83
2024/04/18 01:15:08;;;;;;;;;;;;;;;10.95;100.00;97321.75;5532438;25;19931;-83
2024/04/18 01:17:33;;;;;;;;;;;;;;;10.92;100.00;97322.66;5533904;25;20248;-84
2024/04/18 01:19:59;;;;;;;;;;;;;;;10.96;100.00;97324.03;5533703;25;20010;-85
2024/04/18 01:22:24;;;;;;;;;;;;;;;10.96;100.00;97328.78;5534251;25;19995;-81
2024/04/18 01:24:49;;;;;;;;;;;;;;;10.98;100.00;97329.06;5533701;25;19927;-83
2024/04/18 01:27:14;;;;;;;;;;;;;;;10.92;96.96;97328.97;5566804;25;19927;-82
2024/04/18 01:29:40;;;;;;;;;;;;;;;10.87;95.91;97323.31;5534052;25;19937;-82
2024/04/18 01:32:05;;;;;;;;;;;;;;;10.80;92.45;97329.97;5533729;25;19934;-82
2024/04/18 01:34:30;;;;;;;;;;;;;;;10.84;93.55;97325.03;5533417;25;19927;-81
2024/04/18 01:36:56;;;;;;;;;;;;;;;10.91;95.11;97332.22;5566883;25;19938;-82
2024/04/18 01:39:21;;;;;;;;;;;;;;;10.96;95.90;97331.56;5509392;25;19927;-81
2024/04/18 01:41:46;;;;;;;;;;;;;;;10.97;96.52;97331.06;5533920;25;19927;-81
2024/04/18 01:44:12;;;;;;;;;;;;;;;10.89;96.85;97342.97;5532873;25;20020;-84
2024/04/18 01:46:37;;;;;;;;;;;;;;;10.83;94.57;97342.09;5533090;25;19930;-82
2024/04/18 01:49:02;;;;;;;;;;;;;;;10.74;96.21;97344.91;5502096;25;20017;-82
2024/04/18 01:51:27;;;;;;;;;;;;;;;10.69;96.51;97345.53;5515096;25;19955;-81
2024/04/18 01:53:53;;;;;;;;;;;;;;;10.73;96.90;97343.41;5533560;25;20418;-82
2024/04/18 01:56:18;;;;;;;;;;;;;;;10.60;98.07;97349.91;5547128;25;19927;-81
2024/04/18 01:58:43;;;;;;;;;;;;;;;10.50;97.40;97342.91;5527322;25;20311;-83
2024/04/18 02:01:09;;;;;;;;;;;;;;;10.54;97.13;97354.56;5532889;25;19962;-84
2024/04/18 02:03:34;;;;;;;;;;;;;;;10.53;98.27;97352.25;5533257;25;20422;-81
2024/04/18 02:05:59;;;;;;;;;;;;;;;10.48;97.98;97355.66;5514922;26;19964;-81
2024/04/18 02:08:24;;;;;;;;;;;;;;;10.46;97.51;97352.59;5559968;25;20426;-81
2024/04/18 02:10:50;;;;;;;;;;;;;;;10.41;96.95;97345.72;5533672;25;19938;-83
2024/04/18 02:13:15;;;;;;;;;;;;;;;10.46;96.04;97347.06;5502542;25;20382;-85
2024/04/18 02:15:41;;;;;;;;;;;;;;;10.40;96.94;97355.22;5514564;25;20354;-81
2024/04/18 02:18:06;;;;;;;;;;;;;;;10.27;97.73;97354.69;5532577;25;19927;-82
2024/04/18 02:20:31;;;;;;;;;;;;;;;10.19;97.92;97350.72;5533440;25;19933;-82
2024/04/18 02:22:56;;;;;;;;;;;;;;;10.07;98.84;97357.94;5533397;25;19935;-81
2024/04/18 02:25:22;;;;;;;;;;;;;;;9.99;99.88;97361.50;5532036;25;19959;-82
2024/04/18 02:27:47;;;;;;;;;;;;;;;9.90;99.43;97359.53;5533163;25;19967;-81
2024/04/18 02:30:12;;;;;;;;;;;;;;;9.84;100.00;97369.66;5566103;25;19938;-82
2024/04/18 02:32:38;;;;;;;;;;;;;;;9.82;100.00;97365.84;5565671;25;20244;-83
2024/04/18 02:35:04;;;;;;;;;;;;;;;9.82;98.38;97372.13;5532872;25;19938;-83
2024/04/18 02:37:29;;;;;;;;;;;;;;;9.73;95.67;97370.16;5503726;25;19995;-83
2024/04/18 02:39:54;;;;;;;;;;;;;;;9.73;96.20;97364.63;5513722;25;19938;-81
2024/04/18 02:42:20;;;;;;;;;;;;;;;9.73;95.13;97364.63;5532590;25;20264;-85
2024/04/18 02:44:45;;;;;;;;;;;;;;;9.71;95.59;97363.56;5532602;25;19931;-82
2024/04/18 02:47:10;;;;;;;;;;;;;;;9.70;96.13;97370.31;5532625;25;19972;-84
2024/04/18 02:49:36;;;;;;;;;;;;;;;9.67;96.19;97372.00;5532726;25;20014;-84
2024/04/18 02:52:02;;;;;;;;;;;;;;;9.70;97.64;97368.34;5504635;25;20243;-84
2024/04/18 02:54:27;;;;;;;;;;;;;;;9.80;97.07;97361.56;5511603;25;19939;-82
2024/04/18 02:56:53;;;;;;;;;;;;;;;9.77;97.04;97370.75;5566282;25;19927;-82
2024/04/18 02:59:18;;;;;;;;;;;;;;;9.73;96.88;97367.41;5532498;25;20373;-83
2024/04/18 03:01:44;;;;;;;;;;;;;;;9.71;96.67;97367.09;5532365;25;20248;-81
2024/04/18 03:04:09;;;;;;;;;;;;;;;9.69;96.29;97366.81;5565471;25;19994;-84
2024/04/18 03:06:34;;;;;;;;;;;;;;;9.73;95.49;97366.63;5565242;25;19939;-84
2024/04/18 03:08:59;;;;;;;;;;;;;;;9.72;95.63;97365.88;5532571;25;20782;-81
2024/04/18 03:11:25;;;;;;;;;;;;;;;9.70;95.43;97364.81;5532315;25;19986;-82
2024/04/18 03:13:51;;;;;;;;;;;;;;;9.66;94.13;97366.94;5565012;25;20302;-81
2024/04/18 03:16:16;;;;;;;;;;;;;;;9.64;92.96;97361.91;5507886;25;20236;-84
2024/04/18 03:18:42;;;;;;;;;;;;;;;9.63;92.59;97356.84;5531979;25;19927;-84
2024/04/18 03:21:07;;;;;;;;;;;;;;;9.61;93.63;97362.81;5531551;25;19934;-82
2024/04/18 03:23:32;;;;;;;;;;;;;;;9.53;92.83;97364.34;5531983;25;20342;-82
2024/04/18 03:25:58;;;;;;;;;;;;;;;9.46;93.45;97361.19;5531120;25;19927;-82
2024/04/18 03:28:24;;;;;;;;;;;;;;;9.47;92.44;97366.22;5565421;25;20350;-83
2024/04/18 03:30:49;;;;;;;;;;;;;;;9.49;93.63;97372.03;5532018;25;19994;-82
2024/04/18 03:33:14;;;;;;;;;;;;;;;9.47;92.36;97373.72;5532708;25;20002;-82
2024/04/18 03:35:40;;;;;;;;;;;;;;;9.41;93.38;97376.31;5565022;25;20374;-85
2024/04/18 03:38:05;;;;;;;;;;;;;;;9.35;91.11;97380.91;5564296;25;19935;-84
2024/04/18 03:40:31;;;;;;;;;;;;;;;9.34;92.67;97384.91;5564900;25;19934;-82
2024/04/18 03:42:56;;;;;;;;;;;;;;;9.27;93.96;97391.50;5531677;25;19927;-83
2024/04/18 03:45:21;;;;;;;;;;;;;;;9.16;94.74;97382.91;5531916;25;19935;-85
2024/04/18 03:47:50;;;;;;;;;;;;;;;9.14;94.51;97395.63;5519274;25;20267;-81
2024/04/18 03:50:16;;;;;;;;;;;;;;;9.14;94.84;97393.63;5521235;25;19939;-81
2024/04/18 03:52:41;;;;;;;;;;;;;;;9.10;96.17;97404.03;5532181;25;19927;-83
2024/04/18 03:55:07;;;;;;;;;;;;;;;9.07;96.15;97410.47;5531040;25;19927;-82
2024/04/18 03:57:32;;;;;;;;;;;;;;;9.07;93.88;97407.72;5531407;25;19927;-82
2024/04/18 03:59:57;;;;;;;;;;;;;;;9.09;93.83;97423.78;5531311;25;19927;-81
2024/04/18 04:02:22;;;;;;;;;;;;;;;9.17;92.89;97417.50;5518262;25;19939;-81
2024/04/18 04:04:50;;;;;;;;;;;;;;;9.36;91.88;97408.03;5494875;25;19927;-84
2024/04/18 04:07:15;;;;;;;;;;;;;;;9.50;90.95;97408.63;5531892;25;19934;-83
2024/04/18 04:09:40;;;;;;;;;;;;;;;9.69;90.97;97419.19;5531784;25;20255;-82
2024/04/18 04:12:06;;;;;;;;;;;;;;;9.85;90.19;97400.78;5531058;25;19931;-81
2024/04/18 04:14:31;;;;;;;;;;;;;;;10.06;88.79;97410.84;5564249;25;20472;-80
2024/04/18 04:16:56;;;;;;;;;;;;;;;10.35;87.41;97415.84;5531466;25;19942;-81
2024/04/18 04:19:22;;;;;;;;;;;;;;;10.47;86.08;97412.88;5530658;25;19943;-83
2024/04/18 04:21:47;;;;;;;;;;;;;;;10.30;85.96;97425.53;5531036;25;19937;-81
2024/04/18 04:24:13;;;;;;;;;;;;;;;10.37;86.15;97429.97;5530895;25;19938;-84
2024/04/18 04:26:38;;;;;;;;;;;;;;;10.26;85.71;97427.66;5531390;25;20259;-84
2024/04/18 04:29:03;;;;;;;;;;;;;;;10.20;84.13;97435.06;5530793;25;19927;-82
2024/04/18 04:31:28;;;;;;;;;;;;;;;10.20;84.28;97438.56;5518996;25;20263;-81
2024/04/18 04:33:54;;;;;;;;;;;;;;;10.19;82.78;97444.56;5519067;25;20335;-84
2024/04/18 04:36:19;;;;;;;;;;;;;;;10.17;79.62;97445.03;5527481;25;19927;-83
2024/04/18 04:38:45;;;;;;;;;;;;;;;10.19;81.10;97458.34;5524865;25;20328;-81
2024/04/18 04:41:10;;;;;;;;;;;;;;;10.11;82.82;97459.91;5530565;25;19938;-82
2024/04/18 04:43:35;;;;;;;;;;;;;;;10.09;83.58;97465.88;5529308;25;19960;-81
2024/04/18 04:46:00;;;;;;;;;;;;;;;10.07;85.22;97473.06;5506451;25;19934;-81
2024/04/18 04:48:26;;;;;;;;;;;;;;;9.92;84.50;97474.94;5565403;25;19939;-83
2024/04/18 04:50:58;;;;;;;;;;;;;;;9.87;83.17;97484.63;5533298;25;19926;-82
2024/04/18 04:53:26;;;;;;;;;;;;;;;9.93;84.87;97477.25;5510842;25;19932;-86
2024/04/18 04:55:52;;;;;;;;;;;;;;;10.06;86.59;97480.63;5566654;25;19939;-81
2024/04/18 04:58:18;;;;;;;;;;;;;;;10.13;84.74;97493.31;5566730;25;19927;-83
2024/04/18 05:00:43;;;;;;;;;;;;;;;10.17;86.94;97485.66;5523026;25;19928;-82
2024/04/18 05:03:08;;;;;;;;;;;;;;;10.05;87.59;97492.09;5521314;25;19938;-83
2024/04/18 05:05:33;;;;;;;;;;;;;;;10.13;85.12;97496.81;5534628;25;19934;-82
2024/04/18 05:07:59;;;;;;;;;;;;;;;10.15;84.93;97499.91;5534342;25;19927;-82
2024/04/18 05:10:24;;;;;;;;;;;;;;;10.12;82.78;97489.81;5534614;25;19933;-82
2024/04/18 05:12:52;;;;;;;;;;;;;;;10.14;84.74;97497.59;5534593;25;19927;-85
2024/04/18 05:15:18;;;;;;;;;;;;;;;10.28;85.10;97490.69;5533120;25;19927;-82
2024/04/18 05:17:43;;;;;;;;;;;;;;;10.22;81.81;97496.09;5534279;25;19983;-82
2024/04/18 05:20:08;;;;;;;;;;;;;;;10.15;81.20;97494.38;5566728;25;19927;-82
2024/04/18 05:22:34;;;;;;;;;;;;;;;10.18;80.24;97489.97;5534353;25;20427;-83
2024/04/18 05:24:59;;;;;;;;;;;;;;;10.26;82.52;97498.69;5533886;25;19934;-82
2024/04/18 05:27:25;;;;;;;;;;;;;;;10.23;82.75;97496.84;5567039;25;19934;-84
2024/04/18 05:32:34;;;;;;;;;;;;;;;10.18;84.88;97507.28;5566612;25;19933;-84
2024/04/18 05:34:59;;;;;;;;;;;;;;;10.18;84.35;97506.53;5534144;25;20335;-84
2024/04/18 05:37:25;;;;;;;;;;;;;;;10.28;82.07;97516.31;5509321;25;19935;-84
2024/04/18 05:39:51;;;;;;;;;;;;;;;10.47;84.27;97515.06;5566208;25;20262;-83
2024/04/18 05:42:16;;;;;;;;;;;;;;;10.71;84.17;97508.84;5532522;25;19927;-84
2024/04/18 05:44:41;;;;;;;;;;;;;;;11.09;82.63;97516.50;5565987;25;19934;-83
2024/04/18 05:47:07;;;;;;;;;;;;;;;11.12;79.90;97527.38;5532991;25;19933;-88
2024/04/18 05:49:32;;;;;;;;;;;;;;;11.40;79.51;97542.56;5514289;25;20701;-82
2024/04/18 05:51:57;;;;;;;;;;;;;;;11.31;79.81;97548.16;5497706;26;19928;-83
2024/04/18 05:54:23;;;;;;;;;;;;;;;11.27;78.85;97552.34;5502470;25;20347;-83
2024/04/18 05:56:48;;;;;;;;;;;;;;;11.52;79.12;97551.88;5498401;25;19927;-85
2024/04/18 05:59:13;;;;;;;;;;;;;;;11.71;76.17;97552.53;5505034;25;20003;-84
2024/04/18 06:01:39;;;;;;;;;;;;;;;11.96;77.29;97554.81;5532808;25;19938;-85
2024/04/18 06:04:04;;;;;;;;;;;;;;;11.92;75.25;97559.03;5566326;25;21199;-84
2024/04/18 06:06:29;;;;;;;;;;;;;;;11.72;72.78;97557.59;5532681;25;19927;-85
2024/04/18 06:08:55;;;;;;;;;;;;;;;11.69;74.35;97555.00;5566362;25;19927;-86
2024/04/18 06:11:35;;;;;;;;;;;;;;;11.58;72.04;97563.81;5516386;25;19931;-85
2024/04/18 06:14:01;;;;;;;;;;;;;;;11.57;70.75;97561.56;5529034;25;19933;-83
2024/04/18 06:16:26;;;;;;;;;;;;;;;11.61;70.70;97564.91;5533302;25;20303;-83
2024/04/18 06:18:52;;;;;;;;;;;;;;;11.70;69.76;97568.34;5532463;25;19935;-83
2024/04/18 06:21:17;;;;;;;;;;;;;;;11.67;67.77;97577.63;5565421;25;19976;-82
2024/04/18 06:23:42;;;;;;;;;;;;;;;11.90;66.26;97578.88;5507771;25;20347;-84
2024/04/18 06:26:08;;;;;;;;;;;;;;;12.28;67.51;97577.34;5565088;25;19935;-82
2024/04/18 06:28:33;;;;;;;;;;;;;;;12.47;66.18;97578.72;5565415;25;20259;-81
2024/04/18 06:30:58;;;;;;;;;;;;;;;12.90;67.04;97582.72;5565018;25;19927;-85
2024/04/18 06:33:25;;;;;;;;;;;;;;;13.39;63.80;97584.75;5517434;25;19927;-81
2024/04/18 06:35:52;;;;;;;;;;;;;;;13.54;61.87;97585.50;5508683;25;19931;-83
2024/04/18 06:38:17;;;;;;;;;;;;;;;13.74;58.40;97582.72;5507264;25;19938;-81
2024/04/18 06:40:42;;;;;;;;;;;;;;;14.15;55.48;97586.28;5564362;25;20383;-81
2024/04/18 06:43:07;;;;;;;;;;;;;;;14.49;54.53;97589.44;5564467;25;19927;-81
2024/04/18 06:45:34;;;;;;;;;;;;;;;14.59;53.36;97588.78;5531551;25;20252;-84
2024/04/18 06:47:59;;;;;;;;;;;;;;;14.92;52.97;97590.38;5563481;25;19938;-81
2024/04/18 06:50:26;;;;;;;;;;;;;;;15.39;51.46;97592.50;5561758;25;20343;-81
2024/04/18 06:52:51;;;;;;;;;;;;;;;15.60;49.21;97595.97;5528302;25;19926;-81
2024/04/18 06:55:16;;;;;;;;;;;;;;;15.38;49.73;97593.75;5561016;25;19934;-82
2024/04/18 06:57:42;;;;;;;;;;;;;;;15.22;49.61;97597.19;5528406;25;20257;-80
2024/04/18 07:00:08;;;;;;;;;;;;;;;15.14;50.25;97561.94;5527769;25;19938;-81
2024/04/18 07:02:33;;;;;;;;;;;;;;;15.36;50.73;97593.50;5561606;25;20263;-82
2024/04/18 07:04:58;;;;;;;;;;;;;;;14.79;49.16;97601.88;5564201;25;19927;-81
2024/04/18 07:07:24;;;;;;;;;;;;;;;14.71;48.33;97605.59;5564856;25;19972;-81
2024/04/18 07:09:49;;;;;;;;;;;;;;;14.85;49.84;97610.25;5564951;25;20378;-78
2024/04/18 07:12:14;;;;;;;;;;;;;;;14.67;49.77;97616.91;5531687;25;20000;-79
2024/04/18 07:14:40;;;;;;;;;;;;;;;14.67;50.12;97616.91;5564610;25;20278;-82
2024/04/18 07:17:05;;;;;;;;;;;;;;;14.68;49.94;97617.69;5516211;26;19928;-81
2024/04/18 07:19:30;;;;;;;;;;;;;;;14.81;50.69;97621.63;5555574;25;19959;-82
2024/04/18 07:21:56;;;;;;;;;;;;;;;15.09;48.25;97616.28;5531552;25;19951;-81
2024/04/18 07:24:23;;;;;;;;;;;;;;;15.22;47.45;97613.13;5530529;25;19933;-81
2024/04/18 07:26:48;;;;;;;;;;;;;;;15.21;47.64;97625.50;5531185;25;19927;-82
2024/04/18 07:29:14;;;;;;;;;;;;;;;15.23;48.94;97623.00;5531346;25;19933;-83
2024/04/18 07:31:39;;;;;;;;;;;;;;;15.55;48.41;97626.56;5531470;25;19931;-82
2024/04/18 07:34:04;;;;;;;;;;;;;;;15.80;46.42;97626.44;5564158;25;20353;-80
2024/04/18 07:36:30;;;;;;;;;;;;;;;15.70;45.75;97627.91;5564116;25;19943;-84
2024/04/18 07:38:56;;;;;;;;;;;;;;;15.76;46.57;97630.72;5529195;25;19934;-84
2024/04/18 07:41:21;;;;;;;;;;;;;;;16.02;46.20;97631.38;5548755;25;19930;-82
2024/04/18 07:43:46;;;;;;;;;;;;;;;16.23;45.16;97629.19;5545854;25;20359;-85
2024/04/18 07:46:13;;;;;;;;;;;;;;;16.45;43.72;97625.72;5513512;26;20347;-83
2024/04/18 07:48:39;;;;;;;;;;;;;;;16.61;45.89;97630.63;5543004;25;19955;-84
2024/04/18 07:51:04;;;;;;;;;;;;;;;16.65;43.10;97626.31;5531514;25;19934;-83
2024/04/18 07:53:30;;;;;;;;;;;;;;;16.23;43.29;97629.19;5531550;25;19927;-83
2024/04/18 07:55:55;;;;;;;;;;;;;;;16.40;44.83;97637.59;5563574;25;20386;-83
2024/04/18 07:58:20;;;;;;;;;;;;;;;16.15;42.37;97628.16;5531087;25;19974;-85
2024/04/18 08:00:48;;;;;;;;;;;;;;;15.95;43.43;97623.50;5517518;25;19943;-85
2024/04/18 08:03:13;;;;;;;;;;;;;;;16.33;44.73;97624.19;5516393;25;20005;-86
2024/04/18 08:05:39;;;;;;;;;;;;;;;16.56;42.37;97623.75;5513719;25;20385;-83
2024/04/18 08:08:04;;;;;;;;;;;;;;;16.54;42.18;97628.28;5516071;25;19927;-83
2024/04/18 08:10:29;;;;;;;;;;;;;;;16.94;42.51;97616.72;5560849;25;19994;-83
2024/04/18 08:12:54;;;;;;;;;;;;;;;16.67;42.13;97628.59;5527811;25;19934;-85
2024/04/18 08:15:20;;;;;;;;;;;;;;;16.48;43.90;97628.28;5527674;25;19927;-83
2024/04/18 08:17:45;;;;;;;;;;;;;;;16.34;43.61;97637.59;5563310;25;19995;-83
2024/04/18 08:20:10;;;;;;;;;;;;;;;16.47;43.88;97629.53;5563401;25;19927;-83
2024/04/18 08:22:36;;;;;;;;;;;;;;;16.77;41.33;97632.69;5505446;25;19935;-83
2024/04/18 08:25:06;;;;;;;;;;;;;;;17.11;42.04;97627.16;5517515;26;19935;-84
2024/04/18 08:27:31;;;;;;;;;;;;;;;17.09;43.09;97620.03;5520635;25;19934;-83
2024/04/18 08:29:59;;;;;;;;;;;;;;;17.78;43.18;97625.84;5530579;25;19927;-83
2024/04/18 08:32:24;;;;;;;;;;;;;;;18.41;44.28;97632.75;5530538;25;19926;-85
2024/04/18 08:34:50;;;;;;;;;;;;;;;19.14;40.43;97636.69;5530780;25;19934;-82
2024/04/18 08:37:15;;;;;;;;;;;;;;;19.37;40.21;97646.44;5530418;25;19927;-83
2024/04/18 08:39:41;;;;;;;;;;;;;;;18.87;38.22;97632.78;5530231;25;19943;-83
2024/04/18 08:42:09;;;;;;;;;;;;;;;18.03;42.74;97642.81;5545000;25;19934;-85
2024/04/18 08:44:35;;;;;;;;;;;;;;;17.54;41.38;97630.44;5551665;25;19927;-84
2024/04/18 08:47:01;;;;;;;;;;;;;;;17.39;42.86;97627.91;5557659;25;19927;-82
2024/04/18 08:49:27;;;;;;;;;;;;;;;16.84;43.82;97632.19;5529044;25;20367;-82
2024/04/18 08:51:53;;;;;;;;;;;;;;;17.08;45.07;97629.69;5528564;25;20015;-82
2024/04/18 08:54:19;;;;;;;;;;;;;;;17.50;46.04;97625.09;5515227;26;20348;-82
2024/04/18 08:56:49;;;;;;;;;;;;;;;17.09;45.00;97639.59;5517506;25;19994;-86
2024/04/18 08:59:14;;;;;;;;;;;;;;;17.04;45.67;97640.34;5561500;25;20434;-82
2024/04/18 09:01:39;;;;;;;;;;;;;;;17.16;43.69;97645.94;5560736;25;19935;-82
2024/04/18 09:04:05;;;;;;;;;;;;;;;17.70;43.12;97644.41;5516192;25;19955;-81
2024/04/18 09:06:30;;;;;;;;;;;;;;;17.92;42.00;97648.44;5517630;25;19946;-81
2024/04/18 09:09:00;;;;;;;;;;;;;;;17.76;42.28;97656.34;5525775;25;19934;-81
2024/04/18 09:11:25;;;;;;;;;;;;;;;17.89;41.25;97655.81;5496420;25;19927;-80
2024/04/18 09:13:51;;;;;;;;;;;;;;;17.56;41.03;97656.59;5540234;25;19937;-79
2024/04/18 09:16:16;;;;;;;;;;;;;;;17.68;43.87;97655.34;5527847;25;20350;-79
2024/04/18 09:18:44;;;;;;;;;;;;;;;17.65;45.85;97661.94;5529649;25;19942;-83
2024/04/18 09:21:10;;;;;;;;;;;;;;;17.43;46.02;97665.47;5529471;25;19939;-83
2024/04/18 09:23:35;;;;;;;;;;;;;;;17.55;44.61;97665.47;5562276;25;19927;-83
2024/04/18 09:26:01;;;;;;;;;;;;;;;17.19;45.44;97670.03;5526374;25;20295;-80
2024/04/18 09:28:26;;;;;;;;;;;;;;;17.06;45.81;97664.94;5509006;26;19927;-83
2024/04/18 09:30:55;;;;;;;;;;;;;;;16.92;44.81;97674.31;5511795;25;19926;-81
2024/04/18 09:33:20;;;;;;;;;;;;;;;16.70;45.26;97663.09;5556314;25;19926;-81
2024/04/18 09:35:48;;;;;;;;;;;;;;;16.41;47.97;97661.44;5530909;25;20458;-80
2024/04/18 09:38:16;;;;;;;;;;;;;;;15.90;48.68;97666.03;5521088;25;19935;-79
2024/04/18 09:40:44;;;;;;;;;;;;;;;15.77;48.85;97660.88;5554392;25;19959;-80
2024/04/18 09:43:16;;;;;;;;;;;;;;;15.78;48.14;97664.41;5512250;25;19938;-83
2024/04/18 09:45:47;;;;;;;;;;;;;;;15.69;47.81;97670.16;5532746;25;19927;-83
2024/04/18 09:48:13;;;;;;;;;;;;;;;15.57;44.42;97663.75;5532337;25;19935;-80
2024/04/18 09:50:39;;;;;;;;;;;;;;;15.34;45.27;97667.59;5532978;25;19995;-82
2024/04/18 09:53:06;;;;;;;;;;;;;;;15.29;46.04;97682.25;5533000;25;19927;-80
2024/04/18 09:55:32;;;;;;;;;;;;;;;15.27;48.76;97679.94;5565264;25;20343;-81
2024/04/18 09:57:57;;;;;;;;;;;;;;;15.29;44.77;97674.66;5532529;25;19939;-81
2024/04/18 10:00:23;;;;;;;;;;;;;;;15.47;44.86;97670.75;5565874;25;19935;-85
2024/04/18 10:02:50;;;;;;;;;;;;;;;15.82;45.13;97674.06;5532282;25;19990;-80
2024/04/18 10:15:48;;;;;;;;;;;;;;;18.04;44.77;97656.28;5463302;25;2043254;-83
2024/04/18 10:18:17;;;;;;;;;;;;;;;17.92;40.23;97654.00;5485901;25;19939;-81
2024/04/18 10:20:43;;;;;;;;;;;;;;;18.11;42.75;97641.78;5490470;25;19928;-87
2024/04/18 10:23:15;;;;;;;;;;;;;;;18.27;41.27;97640.94;5493077;25;20335;-85
2024/04/18 10:25:43;;;;;;;;;;;;;;;18.60;41.16;97634.47;5505033;25;20401;-85
2024/04/18 10:28:19;;;;;;;;;;;;;;;19.26;40.57;97628.97;5496417;25;20379;-86
2024/04/18 10:30:44;;;;;;;;;;;;;;;18.46;38.61;97652.31;5487138;25;20345;-84
2024/04/18 10:33:10;;;;;;;;;;;;;;;17.32;39.98;97653.53;5489207;25;19927;-87
2024/04/18 10:35:35;;;;;;;;;;;;;;;17.08;41.65;97651.25;5501753;25;19954;-85
2024/04/18 10:38:02;;;;;;;;;;;;;;;16.88;38.76;97649.44;5508418;25;19938;-87
2024/04/18 10:40:31;;;;;;;;;;;;;;;17.01;42.30;97646.91;5496715;26;19935;-87
2024/04/18 10:43:06;;;;;;;;;;;;;;;16.73;39.94;97648.16;5495763;25;19954;-86
2024/04/18 10:45:32;;;;;;;;;;;;;;;16.74;42.00;97647.66;5504183;26;19928;-86
2024/04/18 10:47:58;;;;;;;;;;;;;;;17.00;41.51;97645.41;5489655;25;19927;-86
2024/04/18 10:50:23;;;;;;;;;;;;;;;16.70;40.45;97643.59;5496024;25;19975;-86
2024/04/18 10:52:49;;;;;;;;;;;;;;;16.11;40.38;97655.47;5516433;25;19928;-86
2024/04/18 10:55:23;;;;;;;;;;;;;;;15.90;44.10;97656.91;5483557;26;20332;-88
2024/04/18 10:57:49;;;;;;;;;;;;;;;15.66;43.20;97640.53;5503822;25;19927;-88
2024/04/18 11:00:16;;;;;;;;;;;;;;;15.49;41.55;97645.97;5508099;25;20021;-88
2024/04/18 11:02:41;;;;;;;;;;;;;;;15.67;42.76;97648.38;5506650;25;19938;-87
2024/04/18 11:05:08;;;;;;;;;;;;;;;15.82;41.27;97648.22;5493843;26;19929;-87
2024/04/18 11:07:34;;;;;;;;;;;;;;;15.92;39.92;97649.56;5507072;26;20366;-87
2024/04/18 11:10:02;;;;;;;;;;;;;;;16.25;43.74;97644.16;5465907;26;19929;-86
2024/04/18 11:12:27;;;;;;;;;;;;;;;16.44;41.63;97649.31;5478054;26;19936;-86
2024/04/18 11:14:54;;;;;;;;;;;;;;;16.23;41.57;97643.13;5480979;26;20279;-87
2024/04/18 11:17:20;;;;;;;;;;;;;;;16.37;44.75;97656.13;5463252;26;19928;-87
2024/04/18 11:19:51;;;;;;;;;;;;;;;16.99;41.96;97649.47;5464698;26;19935;-86
2024/04/18 11:22:17;;;;;;;;;;;;;;;17.19;43.13;97648.47;5470771;26;19935;-86
2024/04/18 11:24:42;;;;;;;;;;;;;;;17.41;40.49;97651.28;5450885;26;19928;-86
2024/04/18 11:27:10;;;;;;;;;;;;;;;17.88;38.82;97654.28;5465513;26;19937;-86
2024/04/18 11:29:40;;;;;;;;;;;;;;;18.08;37.92;97647.66;5475961;26;19936;-87
2024/04/18 11:32:07;;;;;;;;;;;;;;;18.14;40.24;97648.38;5470409;26;19932;-87
2024/04/18 11:34:32;;;;;;;;;;;;;;;18.23;40.22;97651.66;5453801;26;19928;-86
2024/04/18 11:36:58;;;;;;;;;;;;;;;18.04;38.13;97652.72;5461248;26;19964;-85
2024/04/18 11:39:27;;;;;;;;;;;;;;;17.78;39.32;97642.59;5454283;26;20424;-85
2024/04/18 11:41:55;;;;;;;;;;;;;;;17.74;40.08;97646.94;5454359;26;20321;-85
2024/04/18 11:44:20;;;;;;;;;;;;;;;17.42;39.36;97654.84;5469916;26;19952;-85
2024/04/18 11:46:48;;;;;;;;;;;;;;;16.79;39.22;97648.91;5461417;26;19935;-87
2024/04/18 11:49:14;;;;;;;;;;;;;;;16.22;42.11;97645.16;5440148;26;20004;-87
2024/04/18 11:51:39;;;;;;;;;;;;;;;15.79;41.64;97652.03;5457057;26;19936;-87
2024/04/18 11:54:07;;;;;;;;;;;;;;;15.64;42.12;97648.63;5463801;26;20241;-87
2024/04/18 11:56:33;;;;;;;;;;;;;;;15.42;42.86;97649.97;5458470;26;19935;-85
2024/04/18 11:58:59;;;;;;;;;;;;;;;15.21;43.65;97642.97;5460308;26;20259;-87
2024/04/18 12:01:24;;;;;;;;;;;;;;;14.99;43.06;97660.22;5458862;26;19940;-87
2024/04/18 12:03:50;;;;;;;;;;;;;;;14.84;42.62;97645.66;5455945;26;19934;-87
2024/04/18 12:06:15;;;;;;;;;;;;;;;14.90;44.41;97643.69;5456367;26;20267;-88
2024/04/18 12:08:40;;;;;;;;;;;;;;;15.00;44.39;97641.53;5478352;26;19928;-84
2024/04/18 12:11:06;;;;;;;;;;;;;;;14.99;42.74;97665.03;5460247;26;20428;-87
2024/04/18 12:13:31;;;;;;;;;;;;;;;15.01;41.75;97651.38;5459569;26;19935;-85
2024/04/18 12:15:57;;;;;;;;;;;;;;;15.28;43.64;97653.66;5456378;26;20424;-87
2024/04/18 12:18:24;;;;;;;;;;;;;;;15.52;42.25;97639.44;5452326;26;19939;-86
2024/04/18 12:20:50;;;;;;;;;;;;;;;15.76;43.31;97641.88;5442330;26;19928;-84
2024/04/18 12:23:15;;;;;;;;;;;;;;;15.65;40.84;97645.34;5461380;26;19935;-86
2024/04/18 12:25:40;;;;;;;;;;;;;;;15.68;39.96;97646.38;5460642;26;19981;-84
2024/04/18 12:28:05;;;;;;;;;;;;;;;15.90;41.81;97648.53;5433646;26;19928;-84
2024/04/18 12:30:31;;;;;;;;;;;;;;;16.10;40.12;97653.94;5449935;26;19929;-86
2024/04/18 12:32:57;;;;;;;;;;;;;;;15.94;39.17;97655.41;5442345;26;19935;-86
2024/04/18 12:35:23;;;;;;;;;;;;;;;15.68;40.26;97651.94;5444793;26;19928;-86
2024/04/18 12:37:48;;;;;;;;;;;;;;;15.80;42.13;97659.88;5459934;26;19936;-87
2024/04/18 12:40:13;;;;;;;;;;;;;;;15.93;41.41;97661.47;5457836;26;19928;-86
2024/04/18 12:42:39;;;;;;;;;;;;;;;16.22;41.80;97655.53;5460184;26;20244;-83
2024/04/18 12:45:04;;;;;;;;;;;;;;;16.43;40.23;97664.50;5459744;26;20389;-84
2024/04/18 12:47:30;;;;;;;;;;;;;;;16.74;40.55;97666.41;5459435;26;20271;-84
2024/04/18 12:49:55;;;;;;;;;;;;;;;17.09;40.25;97670.28;5459039;26;20363;-83
2024/04/18 12:52:20;;;;;;;;;;;;;;;17.32;39.62;97675.88;5460042;26;20827;-83
2024/04/18 12:54:46;;;;;;;;;;;;;;;17.33;40.27;97661.41;5459524;26;20335;-84